createdAt,value
2019-01-28T00:00:49.474Z,10.80
2019-01-28T00:03:37.919Z,8.70
2019-01-28T00:06:25.503Z,9.33
2019-01-28T00:09:13.582Z,10.00
2019-01-28T00:12:01.220Z,10.37
2019-01-28T00:14:49.539Z,10.00
2019-01-28T00:17:38.545Z,7.93
2019-01-28T00:20:26.826Z,8.50
2019-01-28T00:23:14.696Z,7.57
2019-01-28T00:26:02.700Z,8.23
2019-01-28T00:28:50.820Z,7.33
2019-01-28T00:31:39.634Z,7.77
2019-01-28T00:34:28.219Z,8.00
2019-01-28T00:37:16.353Z,7.30
2019-01-28T00:40:05.828Z,8.53
2019-01-28T00:42:54.327Z,7.37
2019-01-28T00:45:42.122Z,7.73
2019-01-28T00:48:30.583Z,8.03
2019-01-28T00:51:18.195Z,7.20
2019-01-28T00:54:06.157Z,7.07
2019-01-28T00:56:54.346Z,6.23
2019-01-28T00:59:42.444Z,6.70
2019-01-28T01:02:30.051Z,6.03
2019-01-28T01:05:17.689Z,6.10
2019-01-28T01:08:05.781Z,6.93
2019-01-28T01:10:53.851Z,6.27
2019-01-28T01:13:41.971Z,6.73
2019-01-28T01:16:30.623Z,6.10
2019-01-28T01:19:18.939Z,7.50
2019-01-28T01:22:07.113Z,6.33
2019-01-28T01:24:55.217Z,6.93
2019-01-28T01:27:43.908Z,6.83
2019-01-28T01:30:32.665Z,6.60
2019-01-28T01:33:20.700Z,6.30
2019-01-28T01:36:09.360Z,6.10
2019-01-28T01:38:58.150Z,6.50
2019-01-28T01:41:46.012Z,7.00
2019-01-28T01:44:34.663Z,6.20
2019-01-28T01:47:23.549Z,6.80
2019-01-28T01:50:12.011Z,6.10
2019-01-28T01:53:00.386Z,7.10
2019-01-28T01:55:48.588Z,7.03
2019-01-28T01:58:36.267Z,5.77
2019-01-28T02:01:24.237Z,6.50
2019-01-28T02:04:12.884Z,5.87
2019-01-28T02:07:00.884Z,6.97
2019-01-28T02:09:48.608Z,6.00
2019-01-28T02:12:36.533Z,7.83
2019-01-28T02:15:24.875Z,5.20
2019-01-28T02:18:12.896Z,5.93
2019-01-28T02:21:00.820Z,5.20
2019-01-28T02:23:49.338Z,6.30
2019-01-28T02:26:38.227Z,4.03
2019-01-28T02:29:26.879Z,4.80
2019-01-28T02:32:15.282Z,4.20
2019-01-28T02:35:03.427Z,3.60
2019-01-28T02:37:50.943Z,3.30
2019-01-28T02:40:38.491Z,4.67
2019-01-28T02:43:26.832Z,3.53
2019-01-28T02:46:14.867Z,3.97
2019-01-28T02:49:03.496Z,2.97
2019-01-28T02:51:52.187Z,2.80
2019-01-28T02:54:40.739Z,3.07
2019-01-28T02:57:28.516Z,4.20
2019-01-28T03:00:18.876Z,3.10
2019-01-28T03:03:07.393Z,3.10
2019-01-28T03:05:55.307Z,2.60
2019-01-28T03:08:43.771Z,3.30
2019-01-28T03:11:31.975Z,2.70
2019-01-28T03:14:20.340Z,2.57
2019-01-28T03:17:08.669Z,3.13
2019-01-28T03:19:56.758Z,3.13
2019-01-28T03:22:45.700Z,2.97
2019-01-28T03:25:33.928Z,3.00
2019-01-28T03:28:22.144Z,4.13
2019-01-28T03:31:10.375Z,2.47
2019-01-28T03:33:58.932Z,2.67
2019-01-28T03:36:47.651Z,3.43
2019-01-28T03:39:35.887Z,3.30
2019-01-28T03:42:23.921Z,3.10
2019-01-28T03:45:13.781Z,3.20
2019-01-28T03:48:02.075Z,3.40
2019-01-28T03:50:50.475Z,2.97
2019-01-28T03:53:38.923Z,3.10
2019-01-28T03:56:26.519Z,3.00
2019-01-28T03:59:15.327Z,3.20
2019-01-28T04:02:03.133Z,3.13
2019-01-28T04:04:51.043Z,2.93
2019-01-28T04:07:39.511Z,4.50
2019-01-28T04:10:27.599Z,3.53
2019-01-28T04:13:15.068Z,3.00
2019-01-28T04:16:02.774Z,4.13
2019-01-28T04:18:51.304Z,3.30
2019-01-28T04:21:38.815Z,4.23
2019-01-28T04:24:26.395Z,3.40
2019-01-28T04:27:14.455Z,4.17
2019-01-28T04:30:02.372Z,3.60
2019-01-28T04:32:51.462Z,3.90
2019-01-28T04:35:39.880Z,4.30
2019-01-28T04:38:28.016Z,4.87
2019-01-28T04:41:16.333Z,4.13
2019-01-28T04:44:04.835Z,4.67
2019-01-28T04:46:52.814Z,5.33
2019-01-28T04:49:41.040Z,5.47
2019-01-28T04:52:28.651Z,5.10
2019-01-28T04:55:17.543Z,5.60
2019-01-28T04:58:05.655Z,5.03
2019-01-28T05:00:54.503Z,5.17
2019-01-28T05:03:42.564Z,5.60
2019-01-28T05:06:31.172Z,6.83
2019-01-28T05:09:19.087Z,6.37
2019-01-28T05:12:07.125Z,6.57
2019-01-28T05:14:55.054Z,8.00
2019-01-28T05:17:43.409Z,6.70
2019-01-28T05:20:31.895Z,7.40
2019-01-28T05:23:19.715Z,7.67
2019-01-28T05:26:08.177Z,8.27
2019-01-28T05:28:56.390Z,8.40
2019-01-28T05:31:44.967Z,9.67
2019-01-28T05:34:33.388Z,9.90
2019-01-28T05:37:21.844Z,10.33
2019-01-28T05:40:11.552Z,10.37
2019-01-28T05:42:59.787Z,10.93
2019-01-28T05:45:47.493Z,9.77
2019-01-28T05:48:36.129Z,10.47
2019-01-28T05:51:23.975Z,10.83
2019-01-28T05:54:12.604Z,10.67
2019-01-28T05:57:00.691Z,11.50
2019-01-28T05:59:48.312Z,12.77
2019-01-28T06:02:36.295Z,12.27
2019-01-28T06:05:24.069Z,12.60
2019-01-28T06:08:12.148Z,13.63
2019-01-28T06:11:00.267Z,11.17
2019-01-28T06:13:48.663Z,12.90
2019-01-28T06:16:36.246Z,12.33
2019-01-28T06:19:24.707Z,12.93
2019-01-28T06:22:13.122Z,11.80
2019-01-28T06:25:01.501Z,13.47
2019-01-28T06:27:49.810Z,11.13
2019-01-28T06:30:37.971Z,11.40
2019-01-28T06:33:26.047Z,11.30
2019-01-28T06:36:14.781Z,10.00
2019-01-28T06:39:03.609Z,11.53
2019-01-28T06:41:51.896Z,9.20
2019-01-28T06:44:40.216Z,12.13
2019-01-28T06:47:28.780Z,11.80
2019-01-28T06:50:18.182Z,11.17
2019-01-28T06:53:06.682Z,10.70
2019-01-28T06:55:54.499Z,11.63
2019-01-28T06:58:43.252Z,10.07
2019-01-28T07:01:31.683Z,12.43
2019-01-28T07:04:19.709Z,11.60
2019-01-28T07:07:07.917Z,10.90
2019-01-28T07:09:55.651Z,12.97
2019-01-28T07:12:43.624Z,11.07
2019-01-28T07:15:31.366Z,10.53
2019-01-28T07:18:19.628Z,10.93
2019-01-28T07:21:08.132Z,12.83
2019-01-28T07:23:55.653Z,12.27
2019-01-28T07:26:43.433Z,12.97
2019-01-28T07:29:31.620Z,14.23
2019-01-28T07:32:19.923Z,16.03
2019-01-28T07:35:08.576Z,15.17
2019-01-28T07:37:56.791Z,16.40
2019-01-28T07:40:44.680Z,17.03
2019-01-28T07:43:33.115Z,16.57
2019-01-28T07:46:21.136Z,17.80
2019-01-28T07:49:09.164Z,19.87
2019-01-28T07:51:57.432Z,19.47
2019-01-28T07:54:45.686Z,21.23
2019-01-28T07:57:34.194Z,21.10
2019-01-28T08:00:24.484Z,23.10
2019-01-28T08:03:12.948Z,19.63
2019-01-28T08:06:01.701Z,22.03
2019-01-28T08:08:50.093Z,17.30
2019-01-28T08:11:38.176Z,18.73
2019-01-28T08:14:27.024Z,19.30
2019-01-28T08:17:15.252Z,20.40
2019-01-28T08:20:11.414Z,20.73
2019-01-28T08:22:53.824Z,20.70
2019-01-28T08:25:41.459Z,18.20
2019-01-28T08:28:36.673Z,20.20
2019-01-28T08:31:19.912Z,23.17
2019-01-28T08:34:08.088Z,19.83
2019-01-28T08:36:56.205Z,19.87
2019-01-28T08:39:44.400Z,18.33
2019-01-28T08:42:32.498Z,17.37
2019-01-28T08:45:20.783Z,16.30
2019-01-28T08:48:09.167Z,17.00
2019-01-28T08:50:57.445Z,18.13
2019-01-28T08:53:45.992Z,19.47
2019-01-28T08:56:33.576Z,19.17
2019-01-28T08:59:21.591Z,18.10
2019-01-28T09:02:10.741Z,15.53
2019-01-28T09:04:59.019Z,14.50
2019-01-28T09:07:47.204Z,14.93
2019-01-28T09:10:34.954Z,14.37
2019-01-28T09:13:22.909Z,11.17
2019-01-28T09:16:11.711Z,9.87
2019-01-28T09:19:00.023Z,10.20
2019-01-28T09:21:48.037Z,10.47
2019-01-28T09:24:36.488Z,10.67
2019-01-28T09:27:24.483Z,9.97
2019-01-28T09:30:15.335Z,8.90
2019-01-28T09:33:03.492Z,8.23
2019-01-28T09:35:51.672Z,8.23
2019-01-28T09:38:40.648Z,6.60
2019-01-28T09:41:28.768Z,8.13
2019-01-28T09:44:17.241Z,8.23
2019-01-28T09:47:05.932Z,8.33
2019-01-28T09:49:54.732Z,7.40
2019-01-28T09:52:43.463Z,5.97
2019-01-28T09:55:31.811Z,6.80
2019-01-28T09:58:20.004Z,6.50
2019-01-28T10:01:07.892Z,7.37
2019-01-28T10:03:56.051Z,7.13
2019-01-28T10:06:44.650Z,6.30
2019-01-28T10:09:32.652Z,6.83
2019-01-28T10:12:20.211Z,7.60
2019-01-28T10:15:10.656Z,7.23
2019-01-28T10:17:58.709Z,5.90
2019-01-28T10:20:48.349Z,6.07
2019-01-28T10:23:36.340Z,7.67
2019-01-28T10:26:24.246Z,6.97
2019-01-28T10:29:12.500Z,6.80
2019-01-28T10:32:01.073Z,6.00
2019-01-28T10:34:49.365Z,5.40
2019-01-28T10:37:37.472Z,5.83
2019-01-28T10:40:27.719Z,5.10
2019-01-28T10:43:15.740Z,5.53
2019-01-28T10:46:04.265Z,4.40
2019-01-28T10:48:52.756Z,4.53
2019-01-28T10:51:41.307Z,5.87
2019-01-28T10:54:29.963Z,4.63
2019-01-28T10:57:17.761Z,4.53
2019-01-28T11:00:11.763Z,4.17
2019-01-28T11:03:00.160Z,3.97
2019-01-28T11:05:48.525Z,4.17
2019-01-28T11:08:36.596Z,3.43
2019-01-28T11:11:24.991Z,4.13
2019-01-28T11:14:13.373Z,3.13
2019-01-28T11:17:01.482Z,4.40
2019-01-28T11:19:49.109Z,3.07
2019-01-28T11:22:37.577Z,3.03
2019-01-28T11:25:27.952Z,3.50
2019-01-28T11:28:15.822Z,2.70
2019-01-28T11:31:10.294Z,2.90
2019-01-28T11:33:58.698Z,2.37
2019-01-28T11:36:46.884Z,2.40
2019-01-28T11:39:34.679Z,1.67
2019-01-28T11:42:23.276Z,1.80
2019-01-28T11:45:20.867Z,1.50
2019-01-28T11:48:08.960Z,1.37
2019-01-28T11:50:57.331Z,1.47
2019-01-28T11:53:45.123Z,1.53
2019-01-28T11:56:33.536Z,1.30
2019-01-28T11:59:20.985Z,1.50
2019-01-28T12:02:08.880Z,1.60
2019-01-28T12:04:57.378Z,1.40
2019-01-28T12:07:45.624Z,1.00
2019-01-28T12:10:33.763Z,1.60
2019-01-28T12:13:21.975Z,1.30
2019-01-28T12:16:10.262Z,1.70
2019-01-28T12:18:58.851Z,1.37
2019-01-28T12:21:46.498Z,2.00
2019-01-28T12:24:34.960Z,2.03
2019-01-28T12:27:23.244Z,2.20
2019-01-28T12:30:15.830Z,2.13
2019-01-28T12:33:04.615Z,1.87
2019-01-28T12:35:52.423Z,1.90
2019-01-28T12:38:40.334Z,2.57
2019-01-28T12:41:28.515Z,2.30
2019-01-28T12:44:16.528Z,1.83
2019-01-28T12:47:04.035Z,1.77
2019-01-28T12:49:52.014Z,2.40
2019-01-28T12:52:40.737Z,1.70
2019-01-28T12:55:28.486Z,1.93
2019-01-28T12:58:16.327Z,1.80
2019-01-28T13:01:05.717Z,1.80
2019-01-28T13:03:53.854Z,1.23
2019-01-28T13:06:42.178Z,1.03
2019-01-28T13:09:30.241Z,1.33
2019-01-28T13:12:18.274Z,1.00
2019-01-28T13:15:08.075Z,1.10
2019-01-28T13:17:56.710Z,1.00
2019-01-28T13:20:45.056Z,1.90
2019-01-28T13:23:33.367Z,1.00
2019-01-28T13:26:21.507Z,1.07
2019-01-28T13:29:09.982Z,1.20
2019-01-28T13:31:58.230Z,1.30
2019-01-28T13:34:46.730Z,1.00
2019-01-28T13:37:35.379Z,1.10
2019-01-28T13:40:23.347Z,1.10
2019-01-28T13:43:11.736Z,1.20
2019-01-28T13:45:59.540Z,2.40
2019-01-28T13:48:48.063Z,1.67
2019-01-28T13:51:36.232Z,1.30
2019-01-28T13:54:24.737Z,2.07
2019-01-28T13:57:12.763Z,1.70
2019-01-28T14:00:01.445Z,1.60
2019-01-28T14:02:50.278Z,1.70
2019-01-28T14:05:38.327Z,2.33
2019-01-28T14:08:26.271Z,1.70
2019-01-28T14:11:14.274Z,2.13
2019-01-28T14:14:02.399Z,2.00
2019-01-28T14:16:50.794Z,1.87
2019-01-28T14:19:46.041Z,2.40
2019-01-28T14:22:28.550Z,2.80
2019-01-28T14:25:16.972Z,2.47
2019-01-28T14:28:06.482Z,2.67
2019-01-28T14:30:54.843Z,2.57
2019-01-28T14:33:43.146Z,2.40
2019-01-28T14:36:31.191Z,3.20
2019-01-28T14:39:19.235Z,2.47
2019-01-28T14:42:07.071Z,2.17
2019-01-28T14:44:55.351Z,1.90
2019-01-28T14:47:43.339Z,2.43
2019-01-28T14:50:32.271Z,2.50
2019-01-28T14:53:20.656Z,2.57
2019-01-28T14:56:09.018Z,2.60
2019-01-28T14:58:57.270Z,2.43
2019-01-28T15:01:45.279Z,2.50
2019-01-28T15:04:33.439Z,2.03
2019-01-28T15:07:21.896Z,2.47
2019-01-28T15:10:12.193Z,2.10
2019-01-28T15:13:00.571Z,2.07
2019-01-28T15:15:48.505Z,3.50
2019-01-28T15:18:36.702Z,2.63
2019-01-28T15:21:24.876Z,2.83
2019-01-28T15:24:12.992Z,3.17
2019-01-28T15:27:01.506Z,2.70
2019-01-28T15:29:49.894Z,2.37
2019-01-28T15:32:38.415Z,2.93
2019-01-28T15:35:26.319Z,2.40
2019-01-28T15:38:14.731Z,3.50
2019-01-28T15:41:02.231Z,2.90
2019-01-28T15:43:50.246Z,3.97
2019-01-28T15:46:38.044Z,3.20
2019-01-28T15:49:26.046Z,2.97
2019-01-28T15:52:14.803Z,2.30
2019-01-28T15:55:02.663Z,2.43
2019-01-28T15:57:50.491Z,2.43
2019-01-28T16:00:39.762Z,2.67
2019-01-28T16:03:28.351Z,2.40
2019-01-28T16:06:16.086Z,2.90
2019-01-28T16:09:07.671Z,2.77
2019-01-28T16:11:55.701Z,2.63
2019-01-28T16:14:44.187Z,3.23
2019-01-28T16:17:32.882Z,3.23
2019-01-28T16:20:20.939Z,3.17
2019-01-28T16:23:09.197Z,3.23
2019-01-28T16:25:57.607Z,3.10
2019-01-28T16:28:45.667Z,3.70
2019-01-28T16:31:33.922Z,3.17
2019-01-28T16:34:21.443Z,4.60
2019-01-28T16:37:11.412Z,3.17
2019-01-28T16:40:00.251Z,3.70
2019-01-28T16:42:48.582Z,3.60
2019-01-28T16:45:41.668Z,4.80
2019-01-28T16:48:30.486Z,4.43
2019-01-28T16:51:19.023Z,4.70
2019-01-28T16:54:07.495Z,3.80
2019-01-28T16:56:55.443Z,4.50
2019-01-28T16:59:44.086Z,3.60
2019-01-28T17:02:31.494Z,4.30
2019-01-28T17:05:20.014Z,4.87
2019-01-28T17:08:08.475Z,4.90
2019-01-28T17:10:56.878Z,6.47
2019-01-28T17:13:44.779Z,6.10
2019-01-28T17:16:32.815Z,5.60
2019-01-28T17:19:20.962Z,4.90
2019-01-28T17:22:09.385Z,5.87
2019-01-28T17:24:57.653Z,7.53
2019-01-28T17:27:45.622Z,6.97
2019-01-28T17:30:38.883Z,7.37
2019-01-28T17:33:27.331Z,7.00
2019-01-28T17:36:15.094Z,7.83
2019-01-28T17:39:04.734Z,7.77
2019-01-28T17:41:53.172Z,7.33
2019-01-28T17:44:41.424Z,6.47
2019-01-28T17:47:29.348Z,5.60
2019-01-28T17:50:24.484Z,5.50
2019-01-28T17:53:09.764Z,6.23
2019-01-28T17:55:58.292Z,6.40
2019-01-28T17:58:46.188Z,5.27
2019-01-28T18:01:34.768Z,5.63
2019-01-28T18:04:23.123Z,5.57
2019-01-28T18:07:11.656Z,4.43
2019-01-28T18:10:00.175Z,4.83
2019-01-28T18:12:47.829Z,4.53
2019-01-28T18:15:36.355Z,5.80
2019-01-28T18:18:24.577Z,5.47
2019-01-28T18:21:13.263Z,5.40
2019-01-28T18:24:02.026Z,5.03
2019-01-28T18:26:50.699Z,5.63
2019-01-28T18:29:38.607Z,5.40
2019-01-28T18:32:26.805Z,5.37
2019-01-28T18:35:14.791Z,5.80
2019-01-28T18:38:02.842Z,6.60
2019-01-28T18:40:51.159Z,7.30
2019-01-28T18:43:39.258Z,5.30
2019-01-28T18:46:27.539Z,6.43
2019-01-28T18:49:15.972Z,5.87
2019-01-28T18:52:04.706Z,5.90
2019-01-28T18:54:52.737Z,5.73
2019-01-28T18:57:40.899Z,6.23
2019-01-28T19:00:29.706Z,6.90
2019-01-28T19:03:18.581Z,7.80
2019-01-28T19:06:24.285Z,5.93
2019-01-28T19:09:25.110Z,5.10
2019-01-28T19:12:30.552Z,5.93
2019-01-28T19:15:25.420Z,5.80
2019-01-28T19:18:38.178Z,5.90
2019-01-28T19:21:34.983Z,5.67
2019-01-28T19:24:23.013Z,5.53
2019-01-28T19:27:11.403Z,4.93
2019-01-28T19:29:59.546Z,6.17
2019-01-28T19:32:47.585Z,5.23
2019-01-28T19:35:35.614Z,5.60
2019-01-28T19:38:23.890Z,4.40
2019-01-28T19:41:12.275Z,5.03
2019-01-28T19:43:59.970Z,5.30
2019-01-28T19:46:48.156Z,4.47
2019-01-28T19:49:36.010Z,4.57
2019-01-28T19:52:24.665Z,4.20
2019-01-28T19:55:14.002Z,4.33
2019-01-28T19:58:02.543Z,4.80
2019-01-28T20:00:50.942Z,4.27
2019-01-28T20:03:38.774Z,4.30
2019-01-28T20:06:27.006Z,5.00
2019-01-28T20:09:15.245Z,4.10
2019-01-28T20:12:03.766Z,3.60
2019-01-28T20:14:52.467Z,4.60
2019-01-28T20:17:41.025Z,5.10
2019-01-28T20:20:28.711Z,4.57
2019-01-28T20:23:16.920Z,4.00
2019-01-28T20:26:04.862Z,5.07
2019-01-28T20:28:53.069Z,4.40
2019-01-28T20:31:41.212Z,4.87
2019-01-28T20:34:29.302Z,4.93
2019-01-28T20:37:17.686Z,6.87
2019-01-28T20:40:07.310Z,5.20
2019-01-28T20:42:55.186Z,5.77
2019-01-28T20:45:45.255Z,5.20
2019-01-28T20:48:33.550Z,5.60
2019-01-28T20:51:22.277Z,5.20
2019-01-28T20:54:09.713Z,7.87
2019-01-28T20:56:57.688Z,7.13
2019-01-28T20:59:46.317Z,5.83
2019-01-28T21:02:34.576Z,5.43
2019-01-28T21:05:23.035Z,5.80
2019-01-28T21:08:10.933Z,6.53
2019-01-28T21:10:58.732Z,5.03
2019-01-28T21:13:46.510Z,4.40
2019-01-28T21:16:35.102Z,3.53
2019-01-28T21:19:23.323Z,4.97
2019-01-28T21:22:11.578Z,4.33
2019-01-28T21:24:59.898Z,3.93
2019-01-28T21:27:48.387Z,4.63
2019-01-28T21:30:36.677Z,4.50
2019-01-28T21:33:25.366Z,3.93
2019-01-28T21:36:35.431Z,3.43
2019-01-28T21:39:24.374Z,4.47
2019-01-28T21:42:13.096Z,4.57
2019-01-28T21:45:01.114Z,5.20
2019-01-28T21:47:55.532Z,5.77
2019-01-28T21:50:44.491Z,6.03
2019-01-28T21:53:32.092Z,5.80
2019-01-28T21:56:20.246Z,5.83
2019-01-28T21:59:08.507Z,4.77
2019-01-28T22:01:56.175Z,5.10
2019-01-28T22:04:44.567Z,5.80
2019-01-28T22:07:32.722Z,5.53
2019-01-28T22:10:20.353Z,5.23
2019-01-28T22:13:08.595Z,6.10
2019-01-28T22:15:56.650Z,5.50
2019-01-28T22:18:45.687Z,6.30
2019-01-28T22:21:33.723Z,4.83
2019-01-28T22:24:21.778Z,5.57
2019-01-28T22:27:09.728Z,5.80
2019-01-28T22:29:57.958Z,5.47
2019-01-28T22:32:46.343Z,5.50
2019-01-28T22:35:34.078Z,5.47
2019-01-28T22:38:22.709Z,5.30
2019-01-28T22:41:11.451Z,5.00
2019-01-28T22:44:00.150Z,6.20
2019-01-28T22:46:48.697Z,5.47
2019-01-28T22:49:36.884Z,5.40
2019-01-28T22:52:24.566Z,4.83
2019-01-28T22:55:15.066Z,5.43
2019-01-28T22:58:03.314Z,5.00
2019-01-28T23:01:19.128Z,5.97
2019-01-28T23:04:07.172Z,5.53
2019-01-28T23:06:55.529Z,5.20
2019-01-28T23:09:43.367Z,6.57
2019-01-28T23:12:31.319Z,8.57
2019-01-28T23:15:19.094Z,7.07
2019-01-28T23:18:08.294Z,6.60
2019-01-28T23:20:56.923Z,7.00
2019-01-28T23:23:44.963Z,7.53
2019-01-28T23:26:33.014Z,6.87
2019-01-28T23:29:21.159Z,7.40
2019-01-28T23:32:09.048Z,8.27
2019-01-28T23:34:57.152Z,7.10
2019-01-28T23:37:45.882Z,8.40
2019-01-28T23:40:33.856Z,6.60
2019-01-28T23:43:21.902Z,7.30
2019-01-28T23:46:10.091Z,7.37
2019-01-28T23:48:58.116Z,7.50
2019-01-28T23:51:46.451Z,7.70
2019-01-28T23:54:39.974Z,8.70
2019-01-28T23:57:27.986Z,8.13
